Time;durP1;ratioP1;P1;durP2;ratioP2;P2;SDS_P1;SDS_P2;PMS_P1;PMS_P2;Temp;Humidity;BMP_temperature;BMP_pressure;BME280_temperature;BME280_humidity;BME280_pressure;Samples;Min_cycle;Max_cycle;Signal;HPM_P1;HPM_P2
2024/01/10 00:01:49;;;;;;;2.97;1.90;;;;;;;;;;5092461;28;20036;-62
2024/01/10 00:04:16;;;;;;;2.95;1.92;;;;;;;;;;5092352;28;20485;-59
2024/01/10 00:06:42;;;;;;;2.50;1.65;;;;;;;;;;5092653;28;20434;-60
2024/01/10 00:09:08;;;;;;;1.63;1.30;;;;;;;;;;5092023;28;20032;-59
2024/01/10 00:11:34;;;;;;;2.50;1.63;;;;;;;;;;5092464;28;20504;-62
2024/01/10 00:13:59;;;;;;;4.10;1.65;;;;;;;;;;5091203;28;20075;-59
2024/01/10 00:16:26;;;;;;;1.65;1.23;;;;;;;;;;5091984;28;20085;-60
2024/01/10 00:18:52;;;;;;;1.65;1.40;;;;;;;;;;5092355;28;20075;-59
2024/01/10 00:21:17;;;;;;;2.97;1.60;;;;;;;;;;5090860;28;20066;-60
2024/01/10 00:23:43;;;;;;;2.80;1.40;;;;;;;;;;5090083;28;20036;-60
2024/01/10 00:26:09;;;;;;;2.00;1.20;;;;;;;;;;5092167;28;20039;-59
2024/01/10 00:28:34;;;;;;;1.13;1.02;;;;;;;;;;5092160;28;20115;-60
2024/01/10 00:31:00;;;;;;;1.27;1.17;;;;;;;;;;5091929;28;20032;-60
2024/01/10 00:33:25;;;;;;;1.98;1.02;;;;;;;;;;5092188;28;20032;-60
2024/01/10 00:35:51;;;;;;;3.00;1.65;;;;;;;;;;5091859;28;20140;-61
2024/01/10 00:38:16;;;;;;;1.85;1.08;;;;;;;;;;5091280;28;20531;-60
2024/01/10 00:40:42;;;;;;;1.75;1.20;;;;;;;;;;5091740;28;20032;-62
2024/01/10 00:43:07;;;;;;;1.10;1.10;;;;;;;;;;5091941;28;20036;-59
2024/01/10 00:45:33;;;;;;;1.67;1.48;;;;;;;;;;5091395;28;20031;-60
2024/01/10 00:47:59;;;;;;;1.65;1.50;;;;;;;;;;5091564;28;20078;-60
2024/01/10 00:50:24;;;;;;;1.63;1.30;;;;;;;;;;5054392;28;20498;-60
2024/01/10 00:52:50;;;;;;;2.35;1.50;;;;;;;;;;5071586;28;20039;-61
2024/01/10 00:55:16;;;;;;;1.20;1.10;;;;;;;;;;5089811;28;20071;-60
2024/01/10 00:57:41;;;;;;;1.30;1.20;;;;;;;;;;5090346;28;20207;-59
2024/01/10 01:00:09;;;;;;;1.27;1.10;;;;;;;;;;5090347;28;20051;-62
2024/01/10 01:02:35;;;;;;;1.60;1.25;;;;;;;;;;5091763;28;20028;-61
2024/01/10 01:05:00;;;;;;;1.05;0.98;;;;;;;;;;5090185;28;20040;-59
2024/01/10 01:07:26;;;;;;;1.40;1.30;;;;;;;;;;5091429;28;20036;-61
2024/01/10 01:09:52;;;;;;;1.25;1.15;;;;;;;;;;5090505;28;20047;-60
2024/01/10 01:12:18;;;;;;;1.73;1.35;;;;;;;;;;5091084;28;20060;-61
2024/01/10 01:14:43;;;;;;;1.48;1.38;;;;;;;;;;5091548;28;20032;-59
2024/01/10 01:17:09;;;;;;;3.88;1.30;;;;;;;;;;5091334;28;20154;-60
2024/01/10 01:19:35;;;;;;;1.55;1.38;;;;;;;;;;5091746;28;20062;-60
2024/01/10 01:22:00;;;;;;;1.30;1.20;;;;;;;;;;5091359;28;20042;-63
2024/01/10 01:24:26;;;;;;;1.02;0.90;;;;;;;;;;5090284;28;20409;-60
2024/01/10 01:26:52;;;;;;;1.20;1.10;;;;;;;;;;5073209;28;20035;-62
2024/01/10 01:29:17;;;;;;;0.93;0.90;;;;;;;;;;5091160;28;20043;-59
2024/01/10 01:31:43;;;;;;;0.80;0.75;;;;;;;;;;5091553;28;20382;-60
2024/01/10 01:34:09;;;;;;;1.00;0.90;;;;;;;;;;5090988;28;20032;-61
2024/01/10 01:36:34;;;;;;;1.33;0.90;;;;;;;;;;5095415;28;20040;-61
2024/01/10 01:39:00;;;;;;;1.90;0.95;;;;;;;;;;5095575;28;20060;-59
2024/01/10 01:41:25;;;;;;;0.85;0.75;;;;;;;;;;5095453;28;20035;-61
2024/01/10 01:43:51;;;;;;;1.85;0.90;;;;;;;;;;5095454;28;20040;-61
2024/01/10 01:46:17;;;;;;;0.70;0.70;;;;;;;;;;5094156;28;20078;-61
2024/01/10 01:48:43;;;;;;;0.70;0.70;;;;;;;;;;5090199;28;20043;-61
2024/01/10 01:51:09;;;;;;;0.70;0.70;;;;;;;;;;5074737;28;20173;-60
2024/01/10 01:53:35;;;;;;;1.52;0.82;;;;;;;;;;5074810;28;20045;-61
2024/01/10 01:56:03;;;;;;;0.90;0.90;;;;;;;;;;5074634;28;20044;-61
2024/01/10 01:58:29;;;;;;;0.80;0.80;;;;;;;;;;5074143;28;20060;-60
2024/01/10 02:00:55;;;;;;;0.88;0.88;;;;;;;;;;5074300;28;20032;-61
2024/01/10 02:03:20;;;;;;;1.83;1.50;;;;;;;;;;5073174;28;20437;-61
2024/01/10 02:05:46;;;;;;;3.38;2.28;;;;;;;;;;5074729;28;20116;-61
2024/01/10 02:08:12;;;;;;;5.43;2.80;;;;;;;;;;5074502;28;20428;-61
2024/01/10 02:10:38;;;;;;;5.60;3.03;;;;;;;;;;5073727;28;20043;-60
2024/01/10 02:13:03;;;;;;;2.08;1.70;;;;;;;;;;5074509;28;20048;-60
2024/01/10 02:15:29;;;;;;;3.05;1.80;;;;;;;;;;5074484;28;20082;-61
2024/01/10 02:18:14;;;;;;;1.83;1.33;;;;;;;;;;5073645;28;20071;-59
2024/01/10 02:20:44;;;;;;;1.77;1.40;;;;;;;;;;5074268;28;20063;-60
2024/01/10 02:23:10;;;;;;;2.08;1.70;;;;;;;;;;5074413;28;20033;-60
2024/01/10 02:25:35;;;;;;;1.08;1.00;;;;;;;;;;5074344;28;20046;-61
2024/01/10 02:28:01;;;;;;;0.80;0.80;;;;;;;;;;5077395;28;20097;-60
2024/01/10 02:30:26;;;;;;;0.77;0.77;;;;;;;;;;5093336;28;20028;-62
2024/01/10 02:32:52;;;;;;;0.80;0.80;;;;;;;;;;5094448;28;20028;-61
2024/01/10 02:35:17;;;;;;;0.93;0.93;;;;;;;;;;5093923;28;20047;-61
2024/01/10 02:37:43;;;;;;;1.65;1.05;;;;;;;;;;5093749;28;20028;-59
2024/01/10 02:40:09;;;;;;;0.95;0.88;;;;;;;;;;5093159;28;20047;-61
2024/01/10 02:42:35;;;;;;;0.68;0.68;;;;;;;;;;5093977;28;20084;-60
2024/01/10 02:45:00;;;;;;;0.90;0.90;;;;;;;;;;5092818;28;20043;-60
2024/01/10 02:47:26;;;;;;;1.13;1.02;;;;;;;;;;5093130;28;20032;-61
2024/01/10 02:49:52;;;;;;;0.90;0.90;;;;;;;;;;5076889;28;20043;-59
2024/01/10 02:52:19;;;;;;;2.13;1.00;;;;;;;;;;5073783;28;20509;-60
2024/01/10 02:54:45;;;;;;;1.20;1.10;;;;;;;;;;5072451;28;20401;-61
2024/01/10 02:57:11;;;;;;;0.90;0.90;;;;;;;;;;5071692;28;20048;-61
2024/01/10 02:59:36;;;;;;;1.30;1.15;;;;;;;;;;5072738;28;20041;-61
2024/01/10 03:02:02;;;;;;;3.13;1.10;;;;;;;;;;5071972;28;20067;-60
2024/01/10 03:04:27;;;;;;;1.23;1.13;;;;;;;;;;5072068;28;20494;-60
2024/01/10 03:06:53;;;;;;;1.40;1.27;;;;;;;;;;5073314;28;20524;-62
2024/01/10 03:09:18;;;;;;;1.92;1.40;;;;;;;;;;5055499;28;20040;-60
2024/01/10 03:11:44;;;;;;;1.92;1.50;;;;;;;;;;5073582;28;20344;-62
2024/01/10 03:14:10;;;;;;;1.98;1.40;;;;;;;;;;5073104;28;20106;-60
2024/01/10 03:16:37;;;;;;;5.15;1.67;;;;;;;;;;5073287;28;20044;-61
2024/01/10 03:19:02;;;;;;;2.65;1.85;;;;;;;;;;5073467;28;20093;-61
2024/01/10 03:21:28;;;;;;;2.55;1.90;;;;;;;;;;5073540;28;20028;-61
2024/01/10 03:23:57;;;;;;;3.88;2.00;;;;;;;;;;5093371;28;20040;-59
2024/01/10 03:26:23;;;;;;;3.80;2.03;;;;;;;;;;5093222;28;20051;-61
2024/01/10 03:28:48;;;;;;;2.85;1.40;;;;;;;;;;5092673;28;20036;-61
2024/01/10 03:31:14;;;;;;;2.85;1.92;;;;;;;;;;5092166;28;20047;-59
2024/01/10 03:33:40;;;;;;;5.95;2.72;;;;;;;;;;5092995;28;20059;-60
2024/01/10 03:36:06;;;;;;;3.03;2.15;;;;;;;;;;5092908;28;20375;-61
2024/01/10 03:38:32;;;;;;;4.13;2.28;;;;;;;;;;5092946;28;20044;-60
2024/01/10 03:40:57;;;;;;;4.35;2.60;;;;;;;;;;5091998;28;20118;-59
2024/01/10 03:43:23;;;;;;;3.65;2.40;;;;;;;;;;5091263;28;20123;-59
2024/01/10 03:45:49;;;;;;;4.72;3.25;;;;;;;;;;5092949;28;20039;-62
2024/01/10 03:48:14;;;;;;;4.88;2.97;;;;;;;;;;5092094;28;20051;-60
2024/01/10 03:50:40;;;;;;;3.83;2.30;;;;;;;;;;5091078;28;20055;-62
2024/01/10 03:53:06;;;;;;;4.63;3.08;;;;;;;;;;5092703;28;20047;-59
2024/01/10 03:55:32;;;;;;;6.85;3.00;;;;;;;;;;5091627;28;20044;-60
2024/01/10 03:57:57;;;;;;;3.53;2.78;;;;;;;;;;5091476;28;20116;-59
2024/01/10 04:00:23;;;;;;;4.07;2.92;;;;;;;;;;5091948;28;20450;-62
2024/01/10 04:02:48;;;;;;;5.80;3.45;;;;;;;;;;5091652;28;20024;-60
2024/01/10 04:05:14;;;;;;;5.82;3.35;;;;;;;;;;5090409;28;20038;-61
2024/01/10 04:07:41;;;;;;;8.70;4.13;;;;;;;;;;5092553;28;20074;-60
2024/01/10 04:10:10;;;;;;;7.78;4.03;;;;;;;;;;5092378;28;20081;-59
2024/01/10 04:12:38;;;;;;;6.93;4.07;;;;;;;;;;5092731;28;20112;-60
2024/01/10 04:15:04;;;;;;;7.03;4.40;;;;;;;;;;5092325;28;20044;-60
2024/01/10 04:17:30;;;;;;;6.75;4.10;;;;;;;;;;5091149;28;20031;-61
2024/01/10 04:19:57;;;;;;;8.52;3.78;;;;;;;;;;5092530;28;20055;-60
2024/01/10 04:22:25;;;;;;;6.70;4.00;;;;;;;;;;5092200;28;20024;-61
2024/01/10 04:24:51;;;;;;;7.65;3.92;;;;;;;;;;5092257;28;20036;-60
2024/01/10 04:27:18;;;;;;;9.25;4.68;;;;;;;;;;5091561;28;20028;-61
2024/01/10 04:29:43;;;;;;;8.45;4.80;;;;;;;;;;5091997;28;20438;-60
2024/01/10 04:32:09;;;;;;;10.73;4.20;;;;;;;;;;5092045;28;20074;-61
2024/01/10 04:34:35;;;;;;;6.25;4.45;;;;;;;;;;5091985;28;20036;-60
2024/01/10 04:37:00;;;;;;;8.32;4.70;;;;;;;;;;5091622;28;20073;-59
2024/01/10 04:39:26;;;;;;;9.95;3.90;;;;;;;;;;5090800;28;20522;-60
2024/01/10 04:41:51;;;;;;;9.20;5.57;;;;;;;;;;5091315;28;20036;-60
2024/01/10 04:44:17;;;;;;;7.97;5.05;;;;;;;;;;5092051;28;20142;-60
2024/01/10 04:46:43;;;;;;;5.97;4.20;;;;;;;;;;5091636;28;20077;-62
2024/01/10 04:49:08;;;;;;;8.15;4.45;;;;;;;;;;5083531;28;20049;-66
2024/01/10 04:51:34;;;;;;;9.95;5.55;;;;;;;;;;5091494;28;20123;-62
2024/01/10 04:54:00;;;;;;;8.82;4.78;;;;;;;;;;5091799;28;20036;-61
2024/01/10 04:56:25;;;;;;;7.07;3.70;;;;;;;;;;5089641;28;20067;-60
2024/01/10 04:58:51;;;;;;;6.82;4.13;;;;;;;;;;5091093;28;20100;-60
2024/01/10 05:01:17;;;;;;;8.50;4.82;;;;;;;;;;5091229;28;20540;-60
2024/01/10 05:03:43;;;;;;;6.80;3.90;;;;;;;;;;5088583;28;20405;-60
2024/01/10 05:06:08;;;;;;;6.03;3.92;;;;;;;;;;5089916;28;20046;-66
2024/01/10 05:08:34;;;;;;;8.32;4.88;;;;;;;;;;5071832;28;20032;-64
2024/01/10 05:11:00;;;;;;;8.25;4.80;;;;;;;;;;5089954;28;20040;-64
2024/01/10 05:13:26;;;;;;;9.80;4.22;;;;;;;;;;5091545;28;20068;-61
2024/01/10 05:15:52;;;;;;;9.00;4.65;;;;;;;;;;5091822;28;20094;-62
2024/01/10 05:18:18;;;;;;;7.93;3.92;;;;;;;;;;5091344;28;20471;-60
2024/01/10 05:20:44;;;;;;;4.95;3.22;;;;;;;;;;5090990;28;20558;-61
2024/01/10 05:23:09;;;;;;;7.88;4.53;;;;;;;;;;5090781;28;20036;-60
2024/01/10 05:25:35;;;;;;;10.05;4.15;;;;;;;;;;5091537;28;20032;-61
2024/01/10 05:28:01;;;;;;;9.65;6.00;;;;;;;;;;5091104;28;20063;-60
2024/01/10 05:30:26;;;;;;;7.72;4.35;;;;;;;;;;5090855;28;20052;-61
2024/01/10 05:32:52;;;;;;;6.20;4.10;;;;;;;;;;5090395;28;20509;-62
2024/01/10 05:35:17;;;;;;;6.45;4.13;;;;;;;;;;5089563;28;20066;-63
2024/01/10 05:37:43;;;;;;;9.35;5.30;;;;;;;;;;5089498;28;20446;-60
2024/01/10 05:40:09;;;;;;;7.43;4.90;;;;;;;;;;5089757;28;20457;-61
2024/01/10 05:42:35;;;;;;;7.80;4.47;;;;;;;;;;5090776;28;20043;-62
2024/01/10 05:45:02;;;;;;;10.85;5.35;;;;;;;;;;5086772;28;20133;-61
2024/01/10 05:47:30;;;;;;;6.43;3.67;;;;;;;;;;5088985;28;20031;-61
2024/01/10 05:49:55;;;;;;;12.68;4.53;;;;;;;;;;5090392;28;20462;-60
2024/01/10 05:52:22;;;;;;;7.50;4.07;;;;;;;;;;5089318;28;20498;-60
2024/01/10 05:54:48;;;;;;;11.02;4.82;;;;;;;;;;5089912;28;20358;-61
2024/01/10 05:57:17;;;;;;;7.47;4.32;;;;;;;;;;5090189;28;20075;-61
2024/01/10 05:59:42;;;;;;;8.38;4.72;;;;;;;;;;5090820;28;20115;-60
2024/01/10 06:02:08;;;;;;;8.70;4.95;;;;;;;;;;5090286;28;20127;-60
2024/01/10 06:04:33;;;;;;;6.47;4.50;;;;;;;;;;5090555;28;20036;-59
2024/01/10 06:06:59;;;;;;;8.55;4.50;;;;;;;;;;5090522;28;20063;-61
2024/01/10 06:09:25;;;;;;;10.48;4.90;;;;;;;;;;5089801;28;20032;-61
2024/01/10 06:11:50;;;;;;;7.30;4.20;;;;;;;;;;5090188;28;20028;-62
2024/01/10 06:14:16;;;;;;;6.57;4.18;;;;;;;;;;5090624;28;20382;-59
2024/01/10 06:16:42;;;;;;;9.27;4.47;;;;;;;;;;5089827;28;20135;-62
2024/01/10 06:19:10;;;;;;;9.02;4.13;;;;;;;;;;5090671;28;20460;-62
2024/01/10 06:21:35;;;;;;;9.65;4.47;;;;;;;;;;5092657;28;20120;-62
2024/01/10 06:24:01;;;;;;;6.45;3.75;;;;;;;;;;5093926;28;20127;-60
2024/01/10 06:26:27;;;;;;;10.88;5.20;;;;;;;;;;5092629;28;20089;-60
2024/01/10 06:28:52;;;;;;;5.15;3.22;;;;;;;;;;5072963;28;20086;-60
2024/01/10 06:31:18;;;;;;;7.18;4.60;;;;;;;;;;5074908;28;20036;-61
2024/01/10 06:33:44;;;;;;;7.03;4.38;;;;;;;;;;5091642;28;20070;-60
2024/01/10 06:36:10;;;;;;;7.32;4.45;;;;;;;;;;5092056;28;20136;-61
2024/01/10 06:38:38;;;;;;;8.48;4.70;;;;;;;;;;5093346;28;20039;-59
2024/01/10 06:41:11;;;;;;;5.53;3.85;;;;;;;;;;5091603;28;20055;-60
2024/01/10 06:43:37;;;;;;;7.78;3.60;;;;;;;;;;5056679;28;20034;-57
2024/01/10 06:46:03;;;;;;;7.55;4.55;;;;;;;;;;5074382;28;20032;-59
2024/01/10 06:48:29;;;;;;;6.50;4.28;;;;;;;;;;5092008;28;20040;-57
2024/01/10 06:50:58;;;;;;;5.18;3.38;;;;;;;;;;5058276;28;20035;-60
2024/01/10 06:53:24;;;;;;;10.05;3.85;;;;;;;;;;5093420;28;20040;-58
2024/01/10 06:55:49;;;;;;;8.85;4.65;;;;;;;;;;5071339;28;20097;-59
2024/01/10 06:58:15;;;;;;;8.40;4.22;;;;;;;;;;5092261;28;20064;-57
2024/01/10 07:00:41;;;;;;;9.57;5.15;;;;;;;;;;5092882;28;20080;-61
2024/01/10 07:03:07;;;;;;;7.32;3.47;;;;;;;;;;5093122;28;20028;-64
2024/01/10 07:05:33;;;;;;;7.72;4.45;;;;;;;;;;5092360;28;20055;-62
2024/01/10 07:07:59;;;;;;;7.97;4.43;;;;;;;;;;5092437;28;20644;-56
2024/01/10 07:10:27;;;;;;;8.82;4.65;;;;;;;;;;5057361;28;20024;-60
2024/01/10 07:12:53;;;;;;;8.57;3.10;;;;;;;;;;5090327;28;20062;-60
2024/01/10 07:15:19;;;;;;;6.55;3.95;;;;;;;;;;5092107;28;20576;-60
2024/01/10 07:17:45;;;;;;;8.57;4.10;;;;;;;;;;5084331;28;20115;-58
2024/01/10 07:20:11;;;;;;;7.72;4.93;;;;;;;;;;5090900;28;20036;-57
2024/01/10 07:22:41;;;;;;;9.48;5.25;;;;;;;;;;5093293;28;20028;-58
2024/01/10 07:25:07;;;;;;;10.50;4.80;;;;;;;;;;5092628;28;20412;-61
2024/01/10 07:27:33;;;;;;;8.73;4.38;;;;;;;;;;5092298;28;20036;-60
2024/01/10 07:29:59;;;;;;;9.73;5.18;;;;;;;;;;5093138;28;20075;-60
2024/01/10 07:32:24;;;;;;;8.40;5.25;;;;;;;;;;5092382;28;20423;-62
2024/01/10 07:34:50;;;;;;;7.20;4.03;;;;;;;;;;5089214;28;20039;-58
2024/01/10 07:37:20;;;;;;;8.32;4.53;;;;;;;;;;5071673;28;20402;-61
2024/01/10 07:39:46;;;;;;;10.52;4.32;;;;;;;;;;5073815;28;20064;-59
2024/01/10 07:42:12;;;;;;;6.85;3.92;;;;;;;;;;5092908;28;20497;-59
2024/01/10 07:44:37;;;;;;;5.72;3.53;;;;;;;;;;5092974;28;20036;-60
2024/01/10 07:47:03;;;;;;;8.95;4.00;;;;;;;;;;5092413;28;20089;-59
2024/01/10 07:49:29;;;;;;;10.18;4.57;;;;;;;;;;5091270;28;20194;-60
2024/01/10 07:51:55;;;;;;;5.30;3.92;;;;;;;;;;5092855;28;20078;-57
2024/01/10 07:54:21;;;;;;;8.20;4.32;;;;;;;;;;5092777;28;20089;-60
2024/01/10 07:56:46;;;;;;;6.80;4.32;;;;;;;;;;5092024;28;20056;-60
2024/01/10 07:59:15;;;;;;;6.90;4.30;;;;;;;;;;5092213;28;20040;-58
2024/01/10 08:01:44;;;;;;;7.95;4.43;;;;;;;;;;5091749;28;20505;-59
2024/01/10 08:04:10;;;;;;;5.85;3.92;;;;;;;;;;5091247;28;20040;-58
2024/01/10 08:06:36;;;;;;;7.07;4.22;;;;;;;;;;5092026;28;20028;-61
2024/01/10 08:09:04;;;;;;;6.15;3.28;;;;;;;;;;5090246;28;20044;-58
2024/01/10 08:11:30;;;;;;;7.45;4.40;;;;;;;;;;5088568;28;20460;-60
2024/01/10 08:13:55;;;;;;;9.88;5.45;;;;;;;;;;5092335;28;20032;-60
2024/01/10 08:16:21;;;;;;;10.38;4.78;;;;;;;;;;5091786;28;20040;-59
2024/01/10 08:18:46;;;;;;;8.25;3.75;;;;;;;;;;5092270;28;20040;-59
2024/01/10 08:21:12;;;;;;;8.45;4.47;;;;;;;;;;5090449;28;20073;-61
2024/01/10 08:23:38;;;;;;;6.13;4.20;;;;;;;;;;5057082;28;20135;-60
2024/01/10 08:26:08;;;;;;;10.88;5.55;;;;;;;;;;5091917;28;20031;-59
2024/01/10 08:28:33;;;;;;;9.27;4.25;;;;;;;;;;5090848;28;20477;-59
2024/01/10 08:30:59;;;;;;;11.65;5.22;;;;;;;;;;5090247;28;20058;-62
2024/01/10 08:33:25;;;;;;;10.55;6.53;;;;;;;;;;5091391;28;20453;-61
2024/01/10 08:35:50;;;;;;;10.07;5.47;;;;;;;;;;5088433;28;20394;-61
2024/01/10 08:38:16;;;;;;;6.82;4.60;;;;;;;;;;5091875;28;20036;-61
2024/01/10 08:40:42;;;;;;;8.32;5.00;;;;;;;;;;5091497;28;20459;-64
2024/01/10 08:43:07;;;;;;;8.38;4.75;;;;;;;;;;5091638;28;20039;-61
2024/01/10 08:45:33;;;;;;;9.55;4.88;;;;;;;;;;5090438;28;20035;-61
2024/01/10 08:47:59;;;;;;;11.13;5.45;;;;;;;;;;5089442;28;20036;-58
2024/01/10 08:50:24;;;;;;;9.82;5.55;;;;;;;;;;5090777;28;20116;-63
2024/01/10 08:52:50;;;;;;;12.88;6.68;;;;;;;;;;5090833;28;20023;-59
2024/01/10 08:55:16;;;;;;;9.98;4.88;;;;;;;;;;5089043;28;20028;-62
2024/01/10 08:57:41;;;;;;;9.68;4.70;;;;;;;;;;5091530;28;20070;-57
2024/01/10 09:00:11;;;;;;;7.07;4.63;;;;;;;;;;5089849;28;20028;-59
2024/01/10 09:02:38;;;;;;;7.18;5.13;;;;;;;;;;5091604;28;20097;-61
2024/01/10 09:05:04;;;;;;;10.20;5.93;;;;;;;;;;5091410;28;20396;-58
2024/01/10 09:07:30;;;;;;;9.77;5.63;;;;;;;;;;5091367;28;20481;-60
2024/01/10 09:09:56;;;;;;;7.40;4.68;;;;;;;;;;5091404;28;20046;-60
2024/01/10 09:12:21;;;;;;;7.90;4.97;;;;;;;;;;5091526;28;20576;-58
2024/01/10 09:14:47;;;;;;;11.40;5.35;;;;;;;;;;5091457;28;20032;-60
2024/01/10 09:17:12;;;;;;;9.48;5.28;;;;;;;;;;5091065;28;20051;-60
2024/01/10 09:19:38;;;;;;;13.45;6.20;;;;;;;;;;5091383;28;20032;-60
2024/01/10 09:22:04;;;;;;;11.65;5.78;;;;;;;;;;5091539;28;20115;-59
2024/01/10 09:24:29;;;;;;;9.30;5.38;;;;;;;;;;5091328;28;20443;-59
2024/01/10 09:26:55;;;;;;;14.60;6.50;;;;;;;;;;5091151;28;20494;-63
2024/01/10 09:29:21;;;;;;;10.70;5.50;;;;;;;;;;5091048;28;20028;-59
2024/01/10 09:31:47;;;;;;;6.20;4.68;;;;;;;;;;5091431;28;20401;-60
2024/01/10 09:34:13;;;;;;;9.65;5.20;;;;;;;;;;5090115;28;20512;-59
2024/01/10 09:36:38;;;;;;;8.55;4.80;;;;;;;;;;5071030;28;20045;-61
2024/01/10 09:39:05;;;;;;;8.90;4.95;;;;;;;;;;5072163;28;20561;-59
2024/01/10 09:41:36;;;;;;;7.22;4.65;;;;;;;;;;5091019;28;20441;-60
2024/01/10 09:44:02;;;;;;;7.85;4.78;;;;;;;;;;5072765;28;20047;-60
2024/01/10 09:46:29;;;;;;;9.52;4.25;;;;;;;;;;5090138;28;20028;-61
2024/01/10 09:48:55;;;;;;;8.10;4.80;;;;;;;;;;5090985;28;20413;-60
2024/01/10 09:51:22;;;;;;;7.90;4.40;;;;;;;;;;5091077;28;20032;-63
2024/01/10 09:53:49;;;;;;;6.20;4.55;;;;;;;;;;5090171;28;20112;-62
2024/01/10 09:56:15;;;;;;;8.25;4.65;;;;;;;;;;5092912;28;20040;-60
2024/01/10 09:58:43;;;;;;;10.18;5.72;;;;;;;;;;5094844;28;20097;-61
2024/01/10 10:01:09;;;;;;;8.48;4.97;;;;;;;;;;5093921;28;20044;-60
2024/01/10 10:03:37;;;;;;;6.45;3.80;;;;;;;;;;5093340;28;20085;-61
2024/01/10 10:06:21;;;;;;;7.10;3.85;;;;;;;;;;5094950;28;20096;-59
2024/01/10 10:09:33;;;;;;;7.00;4.20;;;;;;;;;;5079180;28;20085;-59
2024/01/10 10:11:59;;;;;;;6.78;4.38;;;;;;;;;;5092915;28;20040;-61
2024/01/10 10:14:27;;;;;;;6.78;4.22;;;;;;;;;;5094338;28;20036;-59
2024/01/10 10:16:53;;;;;;;8.05;4.50;;;;;;;;;;5094011;28;20048;-59
2024/01/10 10:19:22;;;;;;;7.95;4.65;;;;;;;;;;5094218;28;20432;-60
2024/01/10 10:21:48;;;;;;;7.50;4.68;;;;;;;;;;5092650;28;20059;-59
2024/01/10 10:24:13;;;;;;;6.60;3.95;;;;;;;;;;5088557;28;20071;-60
2024/01/10 10:26:41;;;;;;;7.38;4.40;;;;;;;;;;5080570;28;20085;-60
2024/01/10 10:29:06;;;;;;;7.18;4.53;;;;;;;;;;5074189;28;20072;-60
2024/01/10 10:31:32;;;;;;;6.45;4.72;;;;;;;;;;5084208;28;20075;-60
2024/01/10 10:33:59;;;;;;;8.88;4.35;;;;;;;;;;5082902;28;20029;-60
2024/01/10 10:36:25;;;;;;;6.72;4.43;;;;;;;;;;5090025;28;20541;-60
2024/01/10 10:38:50;;;;;;;7.68;4.40;;;;;;;;;;5092570;28;20134;-60
2024/01/10 10:41:16;;;;;;;8.23;4.45;;;;;;;;;;5092619;28;20028;-60
2024/01/10 10:43:43;;;;;;;8.23;4.90;;;;;;;;;;5092350;28;20520;-59
2024/01/10 10:46:14;;;;;;;6.80;4.50;;;;;;;;;;5060867;28;20035;-61
2024/01/10 10:48:40;;;;;;;5.55;4.40;;;;;;;;;;5094159;28;20036;-61
2024/01/10 10:51:11;;;;;;;8.68;4.43;;;;;;;;;;5093340;28;20039;-61
2024/01/10 10:53:38;;;;;;;6.57;4.22;;;;;;;;;;5093736;28;20036;-60
2024/01/10 10:56:05;;;;;;;10.15;5.38;;;;;;;;;;5093564;28;20047;-60
2024/01/10 10:58:38;;;;;;;9.90;4.65;;;;;;;;;;5092418;28;20101;-60
2024/01/10 11:01:08;;;;;;;8.88;4.80;;;;;;;;;;5093363;28;20043;-60
2024/01/10 11:03:34;;;;;;;7.07;4.72;;;;;;;;;;5093596;28;20087;-61
2024/01/10 11:06:01;;;;;;;7.10;4.30;;;;;;;;;;5093331;28;20036;-60
2024/01/10 11:08:27;;;;;;;7.85;4.55;;;;;;;;;;5091400;28;20140;-59
2024/01/10 11:10:53;;;;;;;8.82;5.10;;;;;;;;;;5092707;28;20032;-62
2024/01/10 11:13:25;;;;;;;7.43;4.57;;;;;;;;;;5092726;28;20036;-59
2024/01/10 11:16:00;;;;;;;7.25;4.45;;;;;;;;;;5093436;28;20071;-60
2024/01/10 11:18:32;;;;;;;7.47;4.65;;;;;;;;;;5092006;28;20071;-59
2024/01/10 11:21:05;;;;;;;8.65;4.75;;;;;;;;;;5093543;28;20043;-59
2024/01/10 11:23:31;;;;;;;10.80;5.05;;;;;;;;;;5092984;28;20561;-61
2024/01/10 11:25:58;;;;;;;7.82;4.80;;;;;;;;;;5091530;28;20028;-59
2024/01/10 11:28:25;;;;;;;6.95;4.15;;;;;;;;;;5091400;28;20054;-60
2024/01/10 11:30:51;;;;;;;7.65;4.47;;;;;;;;;;5092643;28;20031;-59
2024/01/10 11:33:21;;;;;;;8.98;5.10;;;;;;;;;;5091631;28;20036;-60
2024/01/10 11:36:05;;;;;;;7.22;4.28;;;;;;;;;;5088187;28;20040;-57
2024/01/10 11:38:31;;;;;;;10.55;4.95;;;;;;;;;;5092120;28;20047;-60
2024/01/10 11:40:57;;;;;;;12.05;5.45;;;;;;;;;;5091092;28;20036;-60
2024/01/10 11:43:22;;;;;;;8.48;4.70;;;;;;;;;;5092678;28;20028;-60
2024/01/10 11:45:52;;;;;;;12.45;5.32;;;;;;;;;;5092624;28;20536;-62
2024/01/10 11:48:28;;;;;;;9.70;5.72;;;;;;;;;;5092336;28;20098;-59
2024/01/10 11:50:54;;;;;;;9.65;5.13;;;;;;;;;;5092506;28;20452;-60
2024/01/10 11:53:39;;;;;;;7.68;4.47;;;;;;;;;;5091829;28;20036;-60
2024/01/10 11:56:18;;;;;;;5.82;4.22;;;;;;;;;;5092245;28;20044;-60
2024/01/10 11:58:53;;;;;;;8.63;5.00;;;;;;;;;;5092646;28;20059;-60
2024/01/10 12:01:20;;;;;;;6.88;4.05;;;;;;;;;;5091275;28;20034;-60
2024/01/10 12:03:46;;;;;;;4.95;3.85;;;;;;;;;;5092466;28;20028;-59
2024/01/10 12:06:14;;;;;;;10.00;4.13;;;;;;;;;;5091603;28;20122;-59
2024/01/10 12:08:40;;;;;;;6.65;4.47;;;;;;;;;;5091500;28;20036;-60
2024/01/10 12:11:05;;;;;;;8.50;4.20;;;;;;;;;;5090035;28;20035;-63
2024/01/10 12:13:32;;;;;;;9.13;4.78;;;;;;;;;;5092420;28;20101;-58
2024/01/10 12:15:57;;;;;;;11.68;4.20;;;;;;;;;;5092027;28;20040;-62
2024/01/10 12:18:23;;;;;;;9.38;5.45;;;;;;;;;;5091027;28;20388;-59
2024/01/10 12:20:49;;;;;;;7.88;5.10;;;;;;;;;;5091870;28;20024;-60
2024/01/10 12:23:15;;;;;;;9.02;5.18;;;;;;;;;;5090851;28;20040;-60
2024/01/10 12:25:40;;;;;;;15.65;6.53;;;;;;;;;;5091966;28;20032;-60
2024/01/10 12:28:06;;;;;;;14.77;7.22;;;;;;;;;;5089413;28;20032;-59
2024/01/10 12:30:32;;;;;;;12.05;6.85;;;;;;;;;;5090017;28;20084;-63
2024/01/10 12:33:01;;;;;;;11.13;6.43;;;;;;;;;;5091717;28;20122;-60
2024/01/10 12:35:27;;;;;;;9.15;6.07;;;;;;;;;;5087940;28;20032;-59
2024/01/10 12:37:55;;;;;;;9.65;5.40;;;;;;;;;;5091415;28;20344;-61
2024/01/10 12:40:21;;;;;;;8.07;5.45;;;;;;;;;;5091469;28;20446;-57
2024/01/10 12:42:47;;;;;;;11.27;6.38;;;;;;;;;;5091865;28;20130;-60
2024/01/10 12:45:22;;;;;;;10.70;5.38;;;;;;;;;;5091387;28;20028;-61
2024/01/10 12:47:48;;;;;;;10.07;5.50;;;;;;;;;;5091216;28;20035;-56
2024/01/10 12:50:14;;;;;;;8.88;6.00;;;;;;;;;;5090319;28;20036;-61
2024/01/10 12:52:44;;;;;;;8.35;5.80;;;;;;;;;;5091205;28;20036;-61
2024/01/10 12:55:09;;;;;;;10.88;5.72;;;;;;;;;;5091230;28;20031;-58
2024/01/10 12:57:35;;;;;;;10.23;5.95;;;;;;;;;;5090023;28;20063;-59
2024/01/10 13:00:06;;;;;;;13.07;6.45;;;;;;;;;;5091470;28;20032;-62
2024/01/10 13:02:36;;;;;;;11.20;5.90;;;;;;;;;;5091502;28;20123;-60
2024/01/10 13:05:04;;;;;;;11.05;6.03;;;;;;;;;;5091184;28;20469;-62
2024/01/10 13:07:34;;;;;;;8.30;5.35;;;;;;;;;;5091020;28;20527;-60
2024/01/10 13:10:00;;;;;;;11.83;6.87;;;;;;;;;;5091246;28;20060;-60
2024/01/10 13:12:26;;;;;;;14.02;7.00;;;;;;;;;;5091204;28;20064;-60
2024/01/10 13:14:53;;;;;;;13.77;6.35;;;;;;;;;;5091081;28;20040;-60
2024/01/10 13:17:19;;;;;;;12.13;6.60;;;;;;;;;;5089949;28;20067;-60
2024/01/10 13:19:48;;;;;;;9.32;6.05;;;;;;;;;;5091174;28;20040;-59
2024/01/10 13:22:17;;;;;;;10.90;6.28;;;;;;;;;;5091065;28;20039;-60
2024/01/10 13:24:42;;;;;;;13.07;7.15;;;;;;;;;;5088712;28;20401;-60
2024/01/10 13:27:10;;;;;;;15.65;7.60;;;;;;;;;;5089702;28;20032;-61
2024/01/10 13:29:37;;;;;;;13.63;7.22;;;;;;;;;;5087756;28;20032;-61
2024/01/10 13:32:03;;;;;;;16.42;7.53;;;;;;;;;;5092792;28;20040;-59
2024/01/10 13:34:29;;;;;;;11.43;6.32;;;;;;;;;;5090301;28;20044;-61
2024/01/10 13:36:54;;;;;;;12.50;6.78;;;;;;;;;;5091463;28;20043;-62
2024/01/10 13:39:20;;;;;;;11.68;5.88;;;;;;;;;;5095263;28;20043;-61
2024/01/10 13:41:45;;;;;;;9.35;5.63;;;;;;;;;;5094856;28;20036;-62
2024/01/10 13:44:11;;;;;;;9.60;5.03;;;;;;;;;;5094027;28;20489;-61
2024/01/10 13:46:37;;;;;;;10.02;5.00;;;;;;;;;;5093400;28;20027;-60
2024/01/10 13:49:03;;;;;;;11.10;5.22;;;;;;;;;;5094602;28;20459;-61
2024/01/10 13:51:28;;;;;;;7.80;4.78;;;;;;;;;;5094893;28;20024;-61
2024/01/10 13:53:54;;;;;;;10.75;6.00;;;;;;;;;;5094993;28;20093;-61
2024/01/10 13:56:22;;;;;;;9.30;4.93;;;;;;;;;;5094501;28;20043;-62
2024/01/10 13:58:48;;;;;;;7.95;4.88;;;;;;;;;;5094982;28;20032;-61
2024/01/10 14:01:14;;;;;;;8.45;4.75;;;;;;;;;;5094550;28;20085;-60
2024/01/10 14:03:39;;;;;;;9.90;5.22;;;;;;;;;;5085995;28;20036;-61
2024/01/10 14:06:05;;;;;;;9.63;5.38;;;;;;;;;;5090345;28;20506;-62
2024/01/10 14:08:31;;;;;;;7.78;5.10;;;;;;;;;;5092671;28;20043;-62
2024/01/10 14:10:57;;;;;;;7.88;5.18;;;;;;;;;;5092553;28;20032;-62
2024/01/10 14:13:25;;;;;;;7.25;4.85;;;;;;;;;;5093128;28;20047;-61
2024/01/10 14:15:51;;;;;;;9.10;5.22;;;;;;;;;;5093863;28;20052;-59
2024/01/10 14:18:17;;;;;;;10.77;5.05;;;;;;;;;;5094255;28;20057;-59
2024/01/10 14:20:42;;;;;;;8.25;4.45;;;;;;;;;;5094201;28;20072;-60
2024/01/10 14:23:08;;;;;;;9.57;4.97;;;;;;;;;;5094205;28;20059;-61
2024/01/10 14:25:34;;;;;;;8.23;5.13;;;;;;;;;;5094282;28;20050;-61
2024/01/10 14:28:00;;;;;;;9.82;5.80;;;;;;;;;;5092673;28;20047;-61
2024/01/10 14:30:27;;;;;;;9.32;5.30;;;;;;;;;;5094062;28;20031;-61
2024/01/10 14:32:52;;;;;;;11.20;5.47;;;;;;;;;;5094152;28;20071;-60
2024/01/10 14:35:18;;;;;;;8.73;4.60;;;;;;;;;;5089214;28;20071;-60
2024/01/10 14:37:44;;;;;;;8.77;4.95;;;;;;;;;;5094133;28;20051;-60